createdAt,value
2018-09-09T00:00:20.505Z,4.00
2018-09-09T00:01:20.519Z,4.00
2018-09-09T00:02:20.535Z,4.00
2018-09-09T00:03:20.570Z,4.00
2018-09-09T00:04:20.581Z,4.00
2018-09-09T00:05:20.588Z,4.00
2018-09-09T00:06:20.609Z,4.00
2018-09-09T00:07:20.628Z,4.00
2018-09-09T00:08:20.647Z,4.00
2018-09-09T00:09:20.660Z,4.00
2018-09-09T00:10:20.676Z,4.00
2018-09-09T00:11:20.700Z,4.00
2018-09-09T00:12:20.704Z,4.00
2018-09-09T00:13:20.724Z,4.00
2018-09-09T00:14:20.736Z,4.00
2018-09-09T00:15:20.751Z,4.00
2018-09-09T00:16:20.766Z,4.00
2018-09-09T00:17:20.793Z,4.00
2018-09-09T00:18:20.799Z,4.00
2018-09-09T00:19:20.823Z,4.00
2018-09-09T00:20:20.836Z,4.00
2018-09-09T00:21:20.869Z,4.00
2018-09-09T00:22:20.876Z,4.00
2018-09-09T00:23:20.888Z,4.00
2018-09-09T00:24:20.904Z,4.00
2018-09-09T00:25:20.923Z,4.00
2018-09-09T00:26:20.936Z,4.00
2018-09-09T00:27:20.949Z,4.00
2018-09-09T00:28:21.036Z,4.00
2018-09-09T00:29:20.992Z,4.00
2018-09-09T00:30:21.000Z,4.00
2018-09-09T00:31:21.024Z,4.00
2018-09-09T00:32:21.037Z,4.00
2018-09-09T00:33:21.058Z,4.00
2018-09-09T00:34:21.108Z,4.00
2018-09-09T00:35:21.089Z,4.00
2018-09-09T00:36:21.113Z,4.00
2018-09-09T00:37:21.127Z,4.00
2018-09-09T00:38:21.136Z,4.00
2018-09-09T00:39:21.160Z,4.00
2018-09-09T00:40:21.240Z,4.00
2018-09-09T00:41:21.188Z,4.00
2018-09-09T00:42:21.204Z,4.00
2018-09-09T00:43:21.223Z,4.00
2018-09-09T00:44:21.241Z,4.00
2018-09-09T00:45:21.260Z,4.00
2018-09-09T00:46:21.275Z,4.00
2018-09-09T00:47:21.291Z,4.00
2018-09-09T00:48:21.306Z,4.00
2018-09-09T00:49:21.328Z,4.00
2018-09-09T00:50:21.340Z,4.00
2018-09-09T00:51:21.357Z,4.00
2018-09-09T00:52:21.373Z,4.00
2018-09-09T00:53:21.440Z,4.00
2018-09-09T00:54:21.405Z,4.00
2018-09-09T00:55:21.426Z,4.00
2018-09-09T00:56:21.436Z,4.00
2018-09-09T00:57:21.456Z,4.00
2018-09-09T00:58:21.473Z,4.00
2018-09-09T00:59:21.568Z,4.00
2018-09-09T01:00:21.504Z,4.00
2018-09-09T01:01:21.524Z,4.00
2018-09-09T01:02:21.540Z,4.00
2018-09-09T01:03:21.565Z,4.00
2018-09-09T01:04:21.571Z,4.00
2018-09-09T01:05:21.642Z,4.00
2018-09-09T01:06:21.608Z,4.00
2018-09-09T01:07:21.624Z,4.00
2018-09-09T01:08:21.641Z,4.00
2018-09-09T01:09:21.662Z,4.00
2018-09-09T01:10:21.676Z,4.00
2018-09-09T01:11:21.692Z,4.00
2018-09-09T01:12:21.708Z,4.00
2018-09-09T01:13:21.724Z,4.00
2018-09-09T01:14:21.737Z,4.00
2018-09-09T01:15:21.757Z,4.00
2018-09-09T01:16:21.768Z,4.00
2018-09-09T01:17:21.796Z,4.00
2018-09-09T01:18:21.872Z,4.00
2018-09-09T01:19:21.819Z,4.00
2018-09-09T01:20:21.844Z,4.00
2018-09-09T01:21:21.863Z,4.00
2018-09-09T01:22:21.871Z,4.00
2018-09-09T01:23:21.884Z,4.00
2018-09-09T01:24:21.990Z,4.00
2018-09-09T01:25:21.924Z,4.00
2018-09-09T01:26:21.936Z,4.00
2018-09-09T01:27:21.959Z,4.00
2018-09-09T01:28:21.979Z,4.00
2018-09-09T01:29:21.987Z,4.00
2018-09-09T01:30:22.002Z,4.00
2018-09-09T01:31:22.018Z,4.00
2018-09-09T01:32:22.041Z,4.00
2018-09-09T01:33:22.052Z,4.00
2018-09-09T01:34:22.076Z,4.00
2018-09-09T01:35:22.089Z,4.00
2018-09-09T01:36:22.111Z,4.00
2018-09-09T01:37:22.120Z,4.00
2018-09-09T01:38:22.133Z,4.00
2018-09-09T01:39:22.151Z,4.00
2018-09-09T01:40:22.172Z,4.00
2018-09-09T01:41:22.185Z,4.00
2018-09-09T01:42:22.200Z,4.00
2018-09-09T01:43:22.221Z,4.00
2018-09-09T01:44:22.232Z,4.00
2018-09-09T01:45:22.251Z,4.00
2018-09-09T01:46:22.269Z,4.00
2018-09-09T01:47:22.278Z,4.00
2018-09-09T01:48:22.297Z,4.00
2018-09-09T01:49:22.312Z,4.00
2018-09-09T01:50:22.333Z,4.00
2018-09-09T01:51:22.348Z,4.00
2018-09-09T01:52:22.368Z,4.00
2018-09-09T01:53:22.386Z,4.00
2018-09-09T01:54:22.401Z,4.00
2018-09-09T01:55:22.490Z,4.00
2018-09-09T01:56:22.428Z,4.00
2018-09-09T01:57:22.447Z,4.00
2018-09-09T01:58:22.460Z,4.00
2018-09-09T01:59:22.483Z,4.00
2018-09-09T02:00:22.500Z,4.00
2018-09-09T02:01:22.552Z,4.00
2018-09-09T02:02:22.536Z,4.00
2018-09-09T02:03:22.552Z,4.00
2018-09-09T02:04:22.558Z,4.00
2018-09-09T02:05:22.575Z,4.00
2018-09-09T02:06:22.600Z,4.00
2018-09-09T02:07:22.660Z,4.00
2018-09-09T02:08:22.632Z,4.00
2018-09-09T02:09:22.644Z,4.00
2018-09-09T02:10:22.666Z,4.00
2018-09-09T02:11:22.676Z,4.00
2018-09-09T02:12:22.696Z,4.00
2018-09-09T02:13:22.708Z,4.00
2018-09-09T02:14:22.724Z,4.00
2018-09-09T02:15:22.746Z,4.00
2018-09-09T02:16:22.764Z,4.00
2018-09-09T02:17:22.779Z,4.00
2018-09-09T02:18:22.795Z,4.00
2018-09-09T02:19:22.836Z,4.00
2018-09-09T02:20:22.824Z,4.00
2018-09-09T02:21:22.843Z,4.00
2018-09-09T02:22:22.856Z,4.00
2018-09-09T02:23:22.872Z,4.00
2018-09-09T02:24:22.892Z,4.00
2018-09-09T02:25:22.969Z,4.00
2018-09-09T02:26:22.928Z,4.00
2018-09-09T02:27:22.944Z,4.00
2018-09-09T02:28:22.959Z,4.00
2018-09-09T02:29:22.970Z,4.00
2018-09-09T02:30:22.985Z,4.00
2018-09-09T02:31:23.008Z,4.00
2018-09-09T02:32:23.021Z,4.00
2018-09-09T02:33:23.049Z,4.00
2018-09-09T02:34:23.052Z,4.00
2018-09-09T02:35:23.075Z,4.00
2018-09-09T02:36:23.092Z,4.00
2018-09-09T02:37:23.104Z,4.00
2018-09-09T02:38:23.127Z,4.00
2018-09-09T02:39:23.135Z,4.00
2018-09-09T02:40:23.157Z,4.00
2018-09-09T02:41:23.180Z,4.00
2018-09-09T02:42:23.185Z,4.00
2018-09-09T02:43:23.196Z,4.00
2018-09-09T02:44:23.220Z,4.00
2018-09-09T02:45:23.233Z,4.00
2018-09-09T02:46:23.251Z,4.00
2018-09-09T02:47:23.271Z,4.00
2018-09-09T02:48:23.300Z,4.00
2018-09-09T02:49:23.304Z,4.00
2018-09-09T02:50:23.320Z,4.00
2018-09-09T02:51:23.332Z,4.00
2018-09-09T02:52:23.353Z,4.00
2018-09-09T02:53:23.364Z,4.00
2018-09-09T02:54:23.379Z,4.00
2018-09-09T02:55:23.397Z,4.00
2018-09-09T02:56:23.423Z,4.00
2018-09-09T02:57:23.430Z,4.00
2018-09-09T02:58:23.446Z,4.00
2018-09-09T02:59:23.467Z,4.00
2018-09-09T03:00:23.484Z,4.00
2018-09-09T03:01:23.544Z,4.00
2018-09-09T03:02:23.512Z,4.00
2018-09-09T03:03:23.532Z,4.00
2018-09-09T03:04:23.548Z,4.00
2018-09-09T03:05:23.564Z,4.00
2018-09-09T03:06:23.589Z,4.00
2018-09-09T03:07:23.636Z,4.00
2018-09-09T03:08:23.616Z,4.00
2018-09-09T03:09:23.634Z,4.00
2018-09-09T03:10:23.647Z,4.00
2018-09-09T03:11:23.668Z,4.00
2018-09-09T03:12:23.675Z,4.00
2018-09-09T03:13:23.696Z,4.00
2018-09-09T03:14:23.707Z,4.00
2018-09-09T03:15:23.731Z,4.00
2018-09-09T03:16:23.744Z,4.00
2018-09-09T03:17:23.763Z,4.00
2018-09-09T03:18:23.776Z,4.00
2018-09-09T03:19:23.797Z,4.00
2018-09-09T03:20:23.812Z,4.00
2018-09-09T03:21:23.832Z,4.00
2018-09-09T03:22:23.839Z,4.00
2018-09-09T03:23:23.863Z,4.00
2018-09-09T03:24:23.872Z,4.00
2018-09-09T03:25:23.896Z,4.00
2018-09-09T03:26:23.908Z,4.00
2018-09-09T03:27:23.924Z,4.00
2018-09-09T03:28:23.964Z,4.00
2018-09-09T03:29:23.960Z,4.00
2018-09-09T03:30:23.972Z,4.00
2018-09-09T03:31:24.000Z,4.00
2018-09-09T03:32:24.011Z,4.00
2018-09-09T03:33:24.020Z,4.00
2018-09-09T03:34:24.042Z,4.00
2018-09-09T03:35:24.056Z,4.00
2018-09-09T03:36:24.076Z,4.00
2018-09-09T03:37:24.157Z,4.00
2018-09-09T03:38:24.113Z,4.00
2018-09-09T03:39:24.125Z,4.00
2018-09-09T03:40:24.140Z,4.00
2018-09-09T03:41:24.161Z,4.00
2018-09-09T03:42:24.173Z,4.00
2018-09-09T03:43:24.204Z,4.00
2018-09-09T03:44:24.208Z,4.00
2018-09-09T03:45:24.225Z,4.00
2018-09-09T03:46:24.240Z,4.00
2018-09-09T03:47:24.249Z,4.00
2018-09-09T03:48:24.273Z,4.00
2018-09-09T03:49:24.284Z,4.00
2018-09-09T03:50:24.306Z,4.00
2018-09-09T03:51:24.317Z,4.00
2018-09-09T03:52:24.333Z,4.00
2018-09-09T03:53:24.350Z,4.00
2018-09-09T03:54:24.364Z,4.00
2018-09-09T03:55:24.418Z,4.00
2018-09-09T03:56:24.402Z,4.00
2018-09-09T03:57:24.421Z,4.00
2018-09-09T03:58:24.437Z,4.00
2018-09-09T03:59:24.450Z,4.00
2018-09-09T04:00:24.469Z,4.00
2018-09-09T04:01:24.481Z,4.00
2018-09-09T04:02:24.496Z,4.00
2018-09-09T04:03:24.517Z,4.00
2018-09-09T04:04:24.537Z,4.00
2018-09-09T04:05:24.549Z,4.00
2018-09-09T04:06:24.567Z,4.00
2018-09-09T04:07:24.629Z,4.00
2018-09-09T04:08:24.598Z,4.00
2018-09-09T04:09:24.608Z,4.00
2018-09-09T04:10:24.630Z,4.00
2018-09-09T04:11:24.667Z,4.00
2018-09-09T04:12:24.667Z,4.00
2018-09-09T04:13:24.677Z,4.00
2018-09-09T04:14:24.697Z,4.00
2018-09-09T04:15:24.709Z,4.00
2018-09-09T04:16:24.727Z,4.00
2018-09-09T04:17:24.746Z,4.00
2018-09-09T04:18:24.765Z,4.00
2018-09-09T04:19:24.783Z,4.00
2018-09-09T04:20:24.801Z,4.00
2018-09-09T04:21:24.814Z,4.00
2018-09-09T04:22:24.834Z,4.00
2018-09-09T04:23:24.842Z,4.00
2018-09-09T04:24:24.860Z,4.00
2018-09-09T04:25:24.921Z,4.00
2018-09-09T04:26:24.885Z,4.00
2018-09-09T04:27:24.906Z,4.00
2018-09-09T04:28:24.925Z,4.00
2018-09-09T04:29:24.944Z,4.00
2018-09-09T04:30:24.962Z,4.00
2018-09-09T04:31:24.977Z,4.00
2018-09-09T04:32:24.994Z,4.00
2018-09-09T04:33:25.005Z,4.00
2018-09-09T04:34:25.024Z,4.00
2018-09-09T04:35:25.037Z,4.00
2018-09-09T04:36:25.053Z,4.00
2018-09-09T04:37:25.065Z,4.00
2018-09-09T04:38:25.082Z,4.00
2018-09-09T04:39:25.103Z,4.00
2018-09-09T04:40:25.118Z,4.00
2018-09-09T04:41:25.140Z,4.00
2018-09-09T04:42:25.161Z,4.00
2018-09-09T04:43:25.171Z,4.00
2018-09-09T04:44:25.186Z,4.00
2018-09-09T04:45:25.198Z,4.00
2018-09-09T04:46:25.264Z,4.00
2018-09-09T04:47:25.235Z,4.00
2018-09-09T04:48:25.253Z,4.00
2018-09-09T04:49:25.273Z,4.00
2018-09-09T04:50:25.286Z,4.00
2018-09-09T04:51:25.301Z,4.00
2018-09-09T04:52:25.326Z,4.00
2018-09-09T04:53:25.334Z,4.00
2018-09-09T04:54:25.347Z,4.00
2018-09-09T04:55:25.358Z,4.00
2018-09-09T04:56:25.378Z,4.00
2018-09-09T04:57:25.395Z,4.00
2018-09-09T04:58:25.410Z,4.00
2018-09-09T04:59:25.428Z,4.00
2018-09-09T05:00:25.446Z,4.00
2018-09-09T05:01:25.539Z,4.00
2018-09-09T05:02:25.475Z,4.00
2018-09-09T05:03:25.495Z,4.00
2018-09-09T05:04:25.511Z,4.00
2018-09-09T05:05:25.534Z,4.00
2018-09-09T05:06:25.547Z,4.00
2018-09-09T05:07:25.563Z,4.00
2018-09-09T05:08:25.595Z,4.00
2018-09-09T05:09:25.594Z,4.00
2018-09-09T05:10:25.614Z,4.00
2018-09-09T05:11:25.624Z,4.00
2018-09-09T05:12:25.650Z,4.00
2018-09-09T05:13:25.659Z,4.00
2018-09-09T05:14:25.739Z,4.00
2018-09-09T05:15:25.692Z,4.00
2018-09-09T05:16:25.711Z,4.00
2018-09-09T05:17:25.717Z,4.00
2018-09-09T05:18:25.743Z,4.00
2018-09-09T05:19:25.754Z,4.00
2018-09-09T05:20:25.803Z,4.00
2018-09-09T05:21:25.796Z,4.00
2018-09-09T05:22:25.802Z,4.00
2018-09-09T05:23:25.821Z,4.00
2018-09-09T05:24:25.843Z,4.00
2018-09-09T05:25:25.856Z,4.00
2018-09-09T05:26:25.870Z,4.00
2018-09-09T05:27:25.888Z,4.00
2018-09-09T05:28:25.898Z,4.00
2018-09-09T05:29:25.923Z,4.00
2018-09-09T05:30:25.934Z,4.00
2018-09-09T05:31:25.946Z,4.00
2018-09-09T05:32:25.963Z,4.00
2018-09-09T05:33:25.979Z,4.00
2018-09-09T05:34:25.999Z,4.00
2018-09-09T05:35:26.015Z,4.00
2018-09-09T05:36:26.028Z,4.00
2018-09-09T05:37:26.043Z,4.00
2018-09-09T05:38:26.058Z,4.00
2018-09-09T05:39:26.079Z,4.00
2018-09-09T05:40:26.100Z,4.00
2018-09-09T05:41:26.107Z,4.00
2018-09-09T05:42:26.200Z,4.00
2018-09-09T05:43:26.142Z,4.00
2018-09-09T05:44:26.158Z,4.00
2018-09-09T05:45:26.190Z,4.00
2018-09-09T05:46:26.188Z,0.00
2018-09-09T05:47:26.203Z,0.00
2018-09-09T05:48:26.223Z,0.00
2018-09-09T05:49:26.239Z,4.00
2018-09-09T05:50:26.257Z,4.00
2018-09-09T05:51:26.272Z,4.00
2018-09-09T05:52:26.283Z,4.00
2018-09-09T05:53:26.308Z,4.00
2018-09-09T05:54:26.323Z,8.00
2018-09-09T05:55:26.335Z,4.00
2018-09-09T05:56:26.356Z,4.00
2018-09-09T05:57:26.398Z,8.00
2018-09-09T05:58:26.383Z,8.00
2018-09-09T05:59:26.402Z,12.00
2018-09-09T06:00:26.410Z,12.00
2018-09-09T06:01:26.427Z,16.00
2018-09-09T06:02:26.451Z,16.00
2018-09-09T06:03:26.463Z,20.00
2018-09-09T06:04:26.478Z,24.00
2018-09-09T06:05:26.495Z,28.00
2018-09-09T06:06:26.516Z,32.00
2018-09-09T06:07:26.527Z,36.00
2018-09-09T06:08:26.543Z,40.00
2018-09-09T06:09:26.565Z,52.00
2018-09-09T06:10:26.575Z,56.00
2018-09-09T06:11:26.591Z,64.00
2018-09-09T06:12:26.608Z,72.00
2018-09-09T06:13:26.627Z,76.00
2018-09-09T06:14:26.643Z,88.00
2018-09-09T06:15:26.655Z,100.00
2018-09-09T06:16:26.711Z,112.00
2018-09-09T06:17:26.691Z,124.00
2018-09-09T06:18:26.757Z,136.00
2018-09-09T06:19:26.727Z,148.00
2018-09-09T06:20:26.735Z,164.00
2018-09-09T06:21:26.752Z,184.00
2018-09-09T06:22:26.799Z,204.00
2018-09-09T06:23:26.787Z,220.00
2018-09-09T06:24:26.807Z,240.00
2018-09-09T06:25:26.820Z,260.00
2018-09-09T06:26:26.831Z,280.00
2018-09-09T06:27:26.855Z,300.00
2018-09-09T06:28:26.866Z,324.00
2018-09-09T06:29:26.887Z,348.00
2018-09-09T06:30:26.899Z,372.00
2018-09-09T06:31:26.915Z,400.00
2018-09-09T06:32:26.939Z,424.00
2018-09-09T06:33:26.954Z,452.00
2018-09-09T06:34:26.966Z,480.00
2018-09-09T06:35:27.048Z,504.00
2018-09-09T06:36:26.991Z,528.00
2018-09-09T06:37:27.018Z,556.00
2018-09-09T06:38:27.024Z,584.00
2018-09-09T06:39:27.039Z,612.00
2018-09-09T06:40:27.063Z,640.00
2018-09-09T06:41:27.139Z,668.00
2018-09-09T06:42:27.092Z,692.00
2018-09-09T06:43:27.111Z,724.00
2018-09-09T06:44:27.126Z,756.00
2018-09-09T06:45:27.143Z,792.00
2018-09-09T06:46:27.214Z,824.00
2018-09-09T06:47:27.183Z,864.00
2018-09-09T06:48:27.221Z,904.00
2018-09-09T06:49:27.200Z,948.00
2018-09-09T06:50:27.224Z,1000.00
2018-09-09T06:51:27.239Z,1056.00
2018-09-09T06:52:27.251Z,1112.00
2018-09-09T06:53:27.325Z,1160.00
2018-09-09T06:54:27.284Z,1208.00
2018-09-09T06:55:27.330Z,1240.00
2018-09-09T06:56:27.323Z,1272.00
2018-09-09T06:57:27.334Z,1292.00
2018-09-09T06:58:27.351Z,1304.00
2018-09-09T06:59:27.378Z,1328.00
2018-09-09T07:00:27.461Z,1348.00
2018-09-09T07:01:27.406Z,1372.00
2018-09-09T07:02:27.475Z,1404.00
2018-09-09T07:03:27.431Z,1440.00
2018-09-09T07:04:27.448Z,1472.00
2018-09-09T07:05:27.464Z,1504.00
2018-09-09T07:06:27.547Z,1532.00
2018-09-09T07:07:27.496Z,1564.00
2018-09-09T07:08:27.511Z,1596.00
2018-09-09T07:09:27.522Z,1640.00
2018-09-09T07:10:27.539Z,1700.00
2018-09-09T07:11:27.781Z,1784.00
2018-09-09T07:12:27.575Z,1960.00
2018-09-09T07:13:27.595Z,2220.00
2018-09-09T07:14:27.603Z,2412.00
2018-09-09T07:15:27.625Z,2528.00
2018-09-09T07:16:27.640Z,2620.00
2018-09-09T07:17:27.658Z,2716.00
2018-09-09T07:18:27.672Z,2788.00
2018-09-09T07:19:27.696Z,2892.00
2018-09-09T07:20:27.707Z,3008.00
2018-09-09T07:21:27.727Z,3120.00
2018-09-09T07:22:27.747Z,3212.00
2018-09-09T07:23:27.755Z,3324.00
2018-09-09T07:24:27.775Z,3436.00
2018-09-09T07:25:27.816Z,3564.00
2018-09-09T07:26:27.811Z,3696.00
2018-09-09T07:27:27.824Z,3804.00
2018-09-09T07:28:27.866Z,3924.00
2018-09-09T07:29:27.866Z,4056.00
2018-09-09T07:30:27.876Z,4180.00
2018-09-09T07:31:27.936Z,4292.00
2018-09-09T07:32:27.913Z,4400.00
2018-09-09T07:33:27.928Z,4500.00
2018-09-09T07:34:27.947Z,4584.00
2018-09-09T07:35:27.964Z,4680.00
2018-09-09T07:36:27.985Z,4756.00
2018-09-09T07:37:28.080Z,4864.00
2018-09-09T07:38:28.016Z,4956.00
2018-09-09T07:39:28.030Z,5028.00
2018-09-09T07:40:28.054Z,5104.00
2018-09-09T07:41:28.068Z,5164.00
2018-09-09T07:42:28.088Z,5232.00
2018-09-09T07:43:28.104Z,5308.00
2018-09-09T07:44:28.124Z,5400.00
2018-09-09T07:45:28.136Z,5492.00
2018-09-09T07:46:28.205Z,5568.00
2018-09-09T07:47:28.176Z,5664.00
2018-09-09T07:48:28.197Z,5752.00
2018-09-09T07:49:28.212Z,5824.00
2018-09-09T07:50:28.292Z,5916.00
2018-09-09T07:51:28.249Z,6000.00
2018-09-09T07:52:28.268Z,6100.00
2018-09-09T07:53:28.280Z,6136.00
2018-09-09T07:54:28.300Z,6204.00
2018-09-09T07:55:28.320Z,6256.00
2018-09-09T07:56:28.383Z,6332.00
2018-09-09T07:57:28.359Z,6376.00
2018-09-09T07:58:28.376Z,6496.00
2018-09-09T07:59:28.396Z,6568.00
2018-09-09T08:00:28.480Z,6640.00
2018-09-09T08:01:28.432Z,6756.00
2018-09-09T08:02:28.487Z,6780.00
2018-09-09T08:03:28.468Z,6892.00
2018-09-09T08:04:28.496Z,6968.00
2018-09-09T08:05:28.508Z,7000.00
2018-09-09T08:06:28.532Z,7036.00
2018-09-09T08:07:28.553Z,7076.00
2018-09-09T08:08:28.572Z,7164.00
2018-09-09T08:09:28.592Z,7204.00
2018-09-09T08:10:28.604Z,7268.00
2018-09-09T08:11:28.633Z,7308.00
2018-09-09T08:12:28.644Z,7420.00
2018-09-09T08:13:28.667Z,7500.00
2018-09-09T08:14:28.688Z,7592.00
2018-09-09T08:15:28.708Z,7636.00
2018-09-09T08:16:28.720Z,7696.00
2018-09-09T08:17:28.748Z,7764.00
2018-09-09T08:18:28.837Z,7776.00
2018-09-09T08:19:28.777Z,7848.00
2018-09-09T08:20:28.848Z,7916.00
2018-09-09T08:21:28.819Z,7936.00
2018-09-09T08:22:28.840Z,8008.00
2018-09-09T08:23:28.903Z,8088.00
2018-09-09T08:24:28.880Z,8120.00
2018-09-09T08:25:28.896Z,8152.00
2018-09-09T08:26:28.939Z,8220.00
2018-09-09T08:27:28.940Z,8308.00
2018-09-09T08:28:28.959Z,8396.00
2018-09-09T08:29:28.986Z,8440.00
2018-09-09T08:30:28.996Z,8524.00
2018-09-09T08:31:29.020Z,8556.00
2018-09-09T08:32:29.035Z,8572.00
2018-09-09T08:33:29.072Z,8704.00
2018-09-09T08:34:29.076Z,8744.00
2018-09-09T08:35:29.104Z,8816.00
2018-09-09T08:36:29.123Z,8864.00
2018-09-09T08:37:29.138Z,8952.00
2018-09-09T08:38:29.154Z,8992.00
2018-09-09T08:39:29.187Z,9048.00
2018-09-09T08:40:29.198Z,9092.00
2018-09-09T08:41:29.223Z,9112.00
2018-09-09T08:42:29.240Z,9144.00
2018-09-09T08:43:29.264Z,9236.00
2018-09-09T08:44:29.351Z,9252.00
2018-09-09T08:45:29.357Z,9280.00
2018-09-09T08:46:29.320Z,9256.00
2018-09-09T08:47:29.340Z,9368.00
2018-09-09T08:48:29.361Z,9416.00
2018-09-09T08:49:29.383Z,9444.00
2018-09-09T08:50:29.585Z,9488.00
2018-09-09T08:51:29.424Z,9576.00
2018-09-09T08:52:29.443Z,9560.00
2018-09-09T08:53:29.467Z,9692.00
2018-09-09T08:54:29.482Z,9784.00
2018-09-09T08:55:29.504Z,9836.00
2018-09-09T08:56:29.619Z,9804.00
2018-09-09T08:57:29.556Z,9916.00
2018-09-09T08:58:29.559Z,9932.00
2018-09-09T08:59:29.607Z,9896.00
2018-09-09T09:00:29.603Z,9944.00
2018-09-09T09:01:29.627Z,9992.00
2018-09-09T09:02:29.668Z,10004.00
2018-09-09T09:03:29.667Z,10092.00
2018-09-09T09:04:29.687Z,10092.00
2018-09-09T09:05:29.706Z,10124.00
2018-09-09T09:06:29.732Z,10148.00
2018-09-09T09:07:29.755Z,10096.00
2018-09-09T09:08:29.772Z,10044.00
2018-09-09T09:09:29.799Z,10260.00
2018-09-09T09:10:29.812Z,10224.00
2018-09-09T09:11:29.839Z,10336.00
2018-09-09T09:12:29.863Z,10324.00
2018-09-09T09:13:29.879Z,10404.00
2018-09-09T09:14:29.903Z,10480.00
2018-09-09T09:15:29.928Z,10480.00
2018-09-09T09:16:29.943Z,10512.00
2018-09-09T09:17:29.967Z,10552.00
2018-09-09T09:18:30.054Z,10668.00
2018-09-09T09:19:30.002Z,10668.00
2018-09-09T09:20:30.051Z,10848.00
2018-09-09T09:21:30.051Z,10860.00
2018-09-09T09:22:30.069Z,10752.00
2018-09-09T09:23:30.147Z,10824.00
2018-09-09T09:24:30.111Z,10912.00
2018-09-09T09:25:30.132Z,10992.00
2018-09-09T09:26:30.156Z,10908.00
2018-09-09T09:27:30.234Z,10860.00
2018-09-09T09:28:30.199Z,10920.00
2018-09-09T09:29:30.215Z,11072.00
2018-09-09T09:30:30.243Z,11148.00
2018-09-09T09:31:30.259Z,11140.00
2018-09-09T09:32:30.279Z,11164.00
2018-09-09T09:33:30.323Z,11208.00
2018-09-09T09:34:30.319Z,11200.00
2018-09-09T09:35:30.354Z,11128.00
2018-09-09T09:36:30.363Z,11376.00
2018-09-09T09:37:30.391Z,11328.00
2018-09-09T09:38:30.412Z,11432.00
2018-09-09T09:39:30.506Z,11516.00
2018-09-09T09:40:30.455Z,11416.00
2018-09-09T09:41:30.486Z,11560.00
2018-09-09T09:42:30.494Z,11652.00
2018-09-09T09:43:30.515Z,11704.00
2018-09-09T09:44:30.538Z,11664.00
2018-09-09T09:45:30.558Z,11556.00
2018-09-09T09:46:30.583Z,11548.00
2018-09-09T09:47:30.598Z,11692.00
2018-09-09T09:48:30.630Z,11744.00
2018-09-09T09:49:30.651Z,11672.00
2018-09-09T09:50:30.671Z,11612.00
2018-09-09T09:51:30.687Z,11584.00
2018-09-09T09:52:30.776Z,11760.00
2018-09-09T09:53:30.792Z,11704.00
2018-09-09T09:54:30.763Z,11872.00
2018-09-09T09:55:30.830Z,11980.00
2018-09-09T09:56:30.803Z,11908.00
2018-09-09T09:57:30.823Z,11908.00
2018-09-09T09:58:30.843Z,12012.00
2018-09-09T09:59:30.866Z,12052.00
2018-09-09T10:00:30.897Z,12084.00
2018-09-09T10:01:30.907Z,12148.00
2018-09-09T10:02:30.927Z,12048.00
2018-09-09T10:03:31.030Z,12100.00
2018-09-09T10:04:30.979Z,12160.00
2018-09-09T10:05:31.000Z,12240.00
2018-09-09T10:06:31.024Z,12352.00
2018-09-09T10:07:31.043Z,12272.00
2018-09-09T10:08:31.063Z,12260.00
2018-09-09T10:09:31.090Z,12328.00
2018-09-09T10:10:31.110Z,12356.00
2018-09-09T10:11:31.199Z,12444.00
2018-09-09T10:12:31.156Z,12432.00
2018-09-09T10:13:31.179Z,12468.00
2018-09-09T10:14:31.200Z,12404.00
2018-09-09T10:15:31.227Z,12484.00
2018-09-09T10:16:31.248Z,12520.00
2018-09-09T10:17:31.310Z,12600.00
2018-09-09T10:18:31.291Z,12584.00
2018-09-09T10:19:31.313Z,12624.00
2018-09-09T10:20:31.340Z,12660.00
2018-09-09T10:21:31.360Z,12620.00
2018-09-09T10:22:31.383Z,12604.00
2018-09-09T10:23:31.419Z,12660.00
2018-09-09T10:24:31.432Z,12700.00
2018-09-09T10:25:31.456Z,12752.00
2018-09-09T10:26:31.471Z,12780.00
2018-09-09T10:27:31.495Z,12760.00
2018-09-09T10:28:31.520Z,12824.00
2018-09-09T10:29:31.556Z,12764.00
2018-09-09T10:30:31.563Z,12804.00
2018-09-09T10:31:31.595Z,12828.00
2018-09-09T10:32:31.616Z,12824.00
2018-09-09T10:33:31.640Z,12916.00
2018-09-09T10:34:31.667Z,12932.00
2018-09-09T10:35:31.689Z,12844.00
2018-09-09T10:36:31.707Z,12828.00
2018-09-09T10:37:31.735Z,12928.00
2018-09-09T10:38:31.755Z,12940.00
2018-09-09T10:39:31.775Z,12900.00
2018-09-09T10:40:31.799Z,12932.00
2018-09-09T10:41:31.823Z,12928.00
2018-09-09T10:42:31.847Z,13008.00
2018-09-09T10:43:31.871Z,13012.00
2018-09-09T10:44:31.896Z,13052.00
2018-09-09T10:45:31.915Z,13028.00
2018-09-09T10:46:32.000Z,13032.00
2018-09-09T10:47:31.961Z,13012.00
2018-09-09T10:48:32.000Z,13148.00
2018-09-09T10:49:32.016Z,13024.00
2018-09-09T10:50:32.042Z,13040.00
2018-09-09T10:51:32.065Z,13144.00
2018-09-09T10:52:32.080Z,13188.00
2018-09-09T10:53:32.108Z,13220.00
2018-09-09T10:54:32.188Z,13200.00
2018-09-09T10:55:32.158Z,13084.00
2018-09-09T10:56:32.181Z,13048.00
2018-09-09T10:57:32.205Z,13244.00
2018-09-09T10:58:32.224Z,13272.00
2018-09-09T10:59:32.251Z,13240.00
2018-09-09T11:00:32.327Z,13240.00
2018-09-09T11:01:32.295Z,13304.00
2018-09-09T11:02:32.324Z,13332.00
2018-09-09T11:03:32.339Z,13328.00
2018-09-09T11:04:32.371Z,13336.00
2018-09-09T11:05:32.388Z,13424.00
2018-09-09T11:06:32.410Z,13320.00
2018-09-09T11:07:32.437Z,13348.00
2018-09-09T11:08:32.463Z,13504.00
2018-09-09T11:09:32.488Z,13268.00
2018-09-09T11:10:32.508Z,13204.00
2018-09-09T11:11:32.535Z,13068.00
2018-09-09T11:12:32.681Z,13144.00
2018-09-09T11:13:32.582Z,12868.00
2018-09-09T11:14:32.608Z,13100.00
2018-09-09T11:15:32.632Z,13376.00
2018-09-09T11:16:32.660Z,13320.00
2018-09-09T11:17:32.678Z,13324.00
2018-09-09T11:18:32.750Z,13364.00
2018-09-09T11:19:32.776Z,13384.00
2018-09-09T11:20:32.745Z,13408.00
2018-09-09T11:21:32.768Z,13512.00
2018-09-09T11:22:32.801Z,13640.00
2018-09-09T11:23:32.822Z,13344.00
2018-09-09T11:24:32.940Z,12856.00
2018-09-09T11:25:32.900Z,12992.00
2018-09-09T11:26:32.891Z,13424.00
2018-09-09T11:27:32.912Z,13520.00
2018-09-09T11:28:32.941Z,13436.00
2018-09-09T11:29:32.971Z,13384.00
2018-09-09T11:30:32.991Z,13408.00
2018-09-09T11:31:33.024Z,13264.00
2018-09-09T11:32:33.044Z,13244.00
2018-09-09T11:33:33.061Z,13316.00
2018-09-09T11:34:33.088Z,13308.00
2018-09-09T11:35:33.113Z,13340.00
2018-09-09T11:36:33.137Z,13336.00
2018-09-09T11:37:33.159Z,13132.00
2018-09-09T11:38:33.185Z,13200.00
2018-09-09T11:39:33.212Z,13464.00
2018-09-09T11:40:33.236Z,13416.00
2018-09-09T11:41:33.264Z,13172.00
2018-09-09T11:42:33.289Z,13292.00
2018-09-09T11:43:33.316Z,13524.00
2018-09-09T11:44:33.348Z,13352.00
2018-09-09T11:45:33.360Z,13268.00
2018-09-09T11:46:33.382Z,13416.00
2018-09-09T11:47:33.408Z,13600.00
2018-09-09T11:48:33.438Z,13560.00
2018-09-09T11:49:33.460Z,13596.00
2018-09-09T11:50:33.476Z,13632.00
2018-09-09T11:51:33.504Z,13460.00
2018-09-09T11:52:33.529Z,13272.00
2018-09-09T11:53:33.552Z,13452.00
2018-09-09T11:54:33.576Z,13464.00
2018-09-09T11:55:33.611Z,13652.00
2018-09-09T11:56:33.665Z,13564.00
2018-09-09T11:57:33.648Z,13616.00
2018-09-09T11:58:33.671Z,13572.00
2018-09-09T11:59:33.696Z,13652.00
2018-09-09T12:00:33.720Z,13568.00
2018-09-09T12:01:33.744Z,13448.00
2018-09-09T12:02:33.842Z,13528.00
2018-09-09T12:03:33.791Z,13552.00
2018-09-09T12:04:33.823Z,13528.00
2018-09-09T12:05:33.841Z,13528.00
2018-09-09T12:06:33.865Z,13612.00
2018-09-09T12:07:33.929Z,13576.00
2018-09-09T12:08:33.918Z,13484.00
2018-09-09T12:09:33.942Z,13492.00
2018-09-09T12:10:33.968Z,13360.00
2018-09-09T12:11:33.991Z,13360.00
2018-09-09T12:12:34.019Z,13280.00
2018-09-09T12:13:34.083Z,13264.00
2018-09-09T12:14:34.068Z,13252.00
2018-09-09T12:15:34.091Z,13256.00
2018-09-09T12:16:34.115Z,13336.00
2018-09-09T12:17:34.140Z,13412.00
2018-09-09T12:18:34.161Z,13436.00
2018-09-09T12:19:34.186Z,13536.00
2018-09-09T12:20:34.212Z,13484.00
2018-09-09T12:21:34.259Z,13416.00
2018-09-09T12:22:34.268Z,13520.00
2018-09-09T12:23:34.364Z,13532.00
2018-09-09T12:24:34.314Z,13580.00
2018-09-09T12:25:34.346Z,13788.00
2018-09-09T12:26:34.371Z,13684.00
2018-09-09T12:27:34.395Z,13708.00
2018-09-09T12:28:34.506Z,13612.00
2018-09-09T12:29:34.447Z,13524.00
2018-09-09T12:30:34.468Z,13524.00
2018-09-09T12:31:34.491Z,13520.00
2018-09-09T12:32:34.566Z,13476.00
2018-09-09T12:33:34.548Z,13376.00
2018-09-09T12:34:34.628Z,13472.00